Time;durP1;ratioP1;P1;durP2;ratioP2;P2;SDS_P1;SDS_P2;PMS_P1;PMS_P2;Temp;Humidity;BMP_temperature;BMP_pressure;BME280_temperature;BME280_humidity;BME280_pressure;Samples;Min_cycle;Max_cycle;Signal;HPM_P1;HPM_P2
2024/04/10 00:01:55;;;;;;;1.00;0.70;;;22.00;93.50;;;;;;5390553;26;21102;-37
2024/04/10 00:04:22;;;;;;;2.50;0.80;;;21.70;93.30;;;;;;5402433;26;20569;-35
2024/04/10 00:06:52;;;;;;;1.30;0.87;;;21.40;93.30;;;;;;5401393;26;20501;-36
2024/04/10 00:09:22;;;;;;;1.30;0.80;;;21.40;93.20;;;;;;5402117;26;21103;-36
2024/04/10 00:11:53;;;;;;;1.13;0.80;;;21.50;93.30;;;;;;5405031;26;20509;-36
2024/04/10 00:14:38;;;;;;;2.20;0.80;;;21.40;93.30;;;;;;5395669;26;20513;-37
2024/04/10 00:17:06;;;;;;;1.10;0.83;;;21.40;93.20;;;;;;5404038;26;21060;-36
2024/04/10 00:19:34;;;;;;;1.10;0.80;;;21.60;93.30;;;;;;5408133;26;20728;-36
2024/04/10 00:22:05;;;;;;;1.47;0.80;;;21.70;93.30;;;;;;5407409;26;20797;-38
2024/04/10 00:24:39;;;;;;;1.30;0.90;;;21.90;93.40;;;;;;5407335;26;21589;-35
2024/04/10 00:27:17;;;;;;;1.23;0.73;;;21.30;93.40;;;;;;5400943;26;20454;-36
2024/04/10 00:29:49;;;;;;;1.30;0.80;;;21.40;93.20;;;;;;5405068;26;20590;-37
2024/04/10 00:32:18;;;;;;;1.30;0.70;;;21.20;93.20;;;;;;5400539;26;20525;-38
2024/04/10 00:34:49;;;;;;;1.30;1.00;;;21.50;93.50;;;;;;5406470;26;21098;-37
2024/04/10 00:37:21;;;;;;;1.63;0.70;;;21.20;93.30;;;;;;5404150;26;20517;-37
2024/04/10 00:39:50;;;;;;;1.00;0.70;;;21.50;93.50;;;;;;5406128;26;20506;-36
2024/04/10 00:42:31;;;;;;;1.30;0.70;;;21.30;93.40;;;;;;5398526;26;20473;-37
2024/04/10 00:45:17;;;;;;;1.60;0.90;;;21.70;93.80;;;;;;5401571;26;20463;-36
2024/04/10 00:47:54;;;;;;;1.50;0.80;;;21.50;93.40;;;;;;5397503;26;20522;-36
2024/04/10 00:50:22;;;;;;;0.90;0.60;;;21.40;93.40;;;;;;5400979;26;21069;-37
2024/04/10 00:53:01;;;;;;;1.00;0.70;;;21.60;93.60;;;;;;5391721;26;20470;-38
2024/04/10 00:55:48;;;;;;;1.00;0.77;;;21.30;93.40;;;;;;5393989;26;21124;-37
2024/04/10 00:58:22;;;;;;;1.53;0.80;;;21.10;93.40;;;;;;5404991;26;20541;-37
2024/04/10 01:01:03;;;;;;;1.07;0.77;;;21.40;93.60;;;;;;5395542;26;21365;-39
2024/04/10 01:03:45;;;;;;;1.27;0.90;;;21.90;93.80;;;;;;5400762;26;20795;-37
2024/04/10 01:06:29;;;;;;;1.02;0.80;;;21.30;93.50;;;;;;5399022;26;20544;-38
2024/04/10 01:09:06;;;;;;;1.13;0.87;;;21.10;93.60;;;;;;5395872;26;20284;-36
2024/04/10 01:11:36;;;;;;;1.48;0.85;;;21.40;93.80;;;;;;5398977;26;20564;-36
2024/04/10 01:14:13;;;;;;;0.97;0.73;;;21.70;94.00;;;;;;5397541;26;20235;-38
2024/04/10 01:16:44;;;;;;;1.00;0.70;;;21.30;93.80;;;;;;5396666;26;20588;-38
2024/04/10 01:19:19;;;;;;;1.47;0.70;;;21.30;93.80;;;;;;5400956;26;20545;-34
2024/04/10 01:21:46;;;;;;;0.90;0.60;;;21.20;93.70;;;;;;5382876;26;20570;-37
2024/04/10 01:24:22;;;;;;;1.15;0.82;;;21.20;93.90;;;;;;5400651;26;20643;-37
2024/04/10 01:26:51;;;;;;;1.00;0.75;;;21.20;93.70;;;;;;5398615;26;20755;-39
2024/04/10 01:29:25;;;;;;;1.10;0.87;;;20.90;93.70;;;;;;5399395;26;20255;-36
2024/04/10 01:31:53;;;;;;;1.13;0.80;;;21.20;93.90;;;;;;5398025;26;20531;-35
2024/04/10 01:34:27;;;;;;;1.00;0.70;;;21.80;94.20;;;;;;5402347;26;20461;-39
2024/04/10 01:37:01;;;;;;;0.90;0.60;;;21.20;93.80;;;;;;5401600;26;20231;-37
2024/04/10 01:39:35;;;;;;;1.20;0.90;;;21.20;93.80;;;;;;5402186;26;20277;-36
2024/04/10 01:42:10;;;;;;;1.00;0.70;;;21.20;94.10;;;;;;5402874;26;20237;-37
2024/04/10 01:44:38;;;;;;;1.50;1.10;;;21.30;94.00;;;;;;5404725;26;20452;-37
2024/04/10 01:47:06;;;;;;;1.40;0.85;;;21.10;93.90;;;;;;5404101;26;20291;-38
2024/04/10 01:49:34;;;;;;;1.55;0.90;;;21.20;93.90;;;;;;5406117;26;20771;-36
2024/04/10 01:52:00;;;;;;;1.30;0.85;;;21.30;94.10;;;;;;5397332;26;21026;-38
2024/04/10 01:54:32;;;;;;;1.30;0.70;;;21.20;94.20;;;;;;5401506;26;20924;-36
2024/04/10 01:57:02;;;;;;;1.00;0.70;;;21.00;93.80;;;;;;5402942;26;20247;-36
2024/04/10 01:59:31;;;;;;;1.40;0.80;;;21.10;94.60;;;;;;5402701;26;20526;-35
2024/04/10 02:02:06;;;;;;;1.57;0.80;;;21.10;94.20;;;;;;5387461;26;20618;-37
2024/04/10 02:04:34;;;;;;;1.73;0.80;;;21.20;94.00;;;;;;5404988;26;20496;-36
2024/04/10 02:07:03;;;;;;;1.20;0.70;;;21.30;94.30;;;;;;5406625;26;21290;-37
2024/04/10 02:09:34;;;;;;;3.20;2.00;;;21.30;94.40;;;;;;5399327;26;20814;-37
2024/04/10 02:12:03;;;;;;;1.50;0.70;;;20.90;94.10;;;;;;5410022;26;21380;-37
2024/04/10 02:14:36;;;;;;;1.10;0.70;;;21.10;94.20;;;;;;5406111;26;20277;-36
2024/04/10 02:17:05;;;;;;;0.98;0.70;;;21.10;94.50;;;;;;5399844;26;21062;-35
2024/04/10 02:19:36;;;;;;;1.20;0.90;;;21.10;94.40;;;;;;5404627;26;20236;-38
2024/04/10 02:22:08;;;;;;;0.90;0.70;;;21.10;94.40;;;;;;5401269;26;20929;-36
2024/04/10 02:24:42;;;;;;;1.20;0.80;;;20.90;94.10;;;;;;5405124;26;20233;-37
2024/04/10 02:27:13;;;;;;;1.10;0.80;;;21.00;94.50;;;;;;5404834;26;20454;-38
2024/04/10 02:29:47;;;;;;;0.90;0.60;;;21.30;94.50;;;;;;5404786;26;20490;-35
2024/04/10 02:32:17;;;;;;;1.00;0.70;;;21.00;94.40;;;;;;5407007;26;20470;-38
2024/04/10 02:34:48;;;;;;;1.53;1.10;;;20.80;94.40;;;;;;5397239;26;20537;-39
2024/04/10 02:37:18;;;;;;;1.00;0.80;;;20.90;94.40;;;;;;5404540;26;21143;-35
2024/04/10 02:39:47;;;;;;;0.90;0.60;;;20.80;94.40;;;;;;5397752;26;21154;-35
2024/04/10 02:42:17;;;;;;;1.10;0.80;;;20.90;94.50;;;;;;5404385;26;20278;-36
2024/04/10 02:44:50;;;;;;;1.10;0.70;;;20.70;94.40;;;;;;5396136;26;20243;-38
2024/04/10 02:47:17;;;;;;;1.08;0.70;;;21.20;94.80;;;;;;5399335;26;20600;-38
2024/04/10 02:49:51;;;;;;;1.50;0.68;;;20.80;94.50;;;;;;5397451;26;20275;-37
2024/04/10 02:52:18;;;;;;;1.35;0.90;;;20.90;94.70;;;;;;5404130;26;20236;-35
2024/04/10 02:55:06;;;;;;;0.90;0.70;;;20.80;94.70;;;;;;5406027;26;20231;-36
2024/04/10 02:57:39;;;;;;;0.90;0.70;;;21.00;94.80;;;;;;5400755;26;20276;-37
2024/04/10 03:00:15;;;;;;;1.10;0.70;;;20.80;94.60;;;;;;5393574;26;20824;-38
2024/04/10 03:02:41;;;;;;;1.15;0.65;;;20.90;94.80;;;;;;5392195;26;21007;-35
2024/04/10 03:05:18;;;;;;;1.20;0.90;;;20.80;95.00;;;;;;5393408;26;21534;-38
2024/04/10 03:07:49;;;;;;;0.98;0.70;;;20.70;94.90;;;;;;5395091;26;20237;-36
2024/04/10 03:10:20;;;;;;;1.58;0.90;;;20.80;95.00;;;;;;5397017;26;20245;-39
2024/04/10 03:12:53;;;;;;;1.10;0.80;;;20.70;95.00;;;;;;5399926;26;20268;-35
2024/04/10 03:15:21;;;;;;;1.23;0.80;;;20.70;94.80;;;;;;5398867;26;20346;-36
2024/04/10 03:17:47;;;;;;;1.35;0.70;;;20.70;95.10;;;;;;5394722;26;20673;-38
2024/04/10 03:20:17;;;;;;;1.10;0.70;;;20.60;95.10;;;;;;5403425;26;20224;-36
2024/04/10 03:22:53;;;;;;;1.63;0.80;;;20.70;95.00;;;;;;5401766;26;20238;-38
2024/04/10 03:25:23;;;;;;;1.00;0.80;;;20.80;95.20;;;;;;5401046;26;20344;-37
2024/04/10 03:27:56;;;;;;;1.35;0.68;;;20.70;95.20;;;;;;5398893;26;20540;-37
2024/04/10 03:30:32;;;;;;;1.08;0.80;;;20.80;95.30;;;;;;5401381;26;20376;-36
2024/04/10 03:33:05;;;;;;;1.20;0.70;;;20.60;95.10;;;;;;5389444;26;20627;-38
2024/04/10 03:35:38;;;;;;;1.20;0.87;;;20.80;95.30;;;;;;5402750;26;20492;-37
2024/04/10 03:38:09;;;;;;;1.30;0.70;;;20.60;95.20;;;;;;5399397;26;20513;-38
2024/04/10 03:40:37;;;;;;;1.10;0.68;;;20.80;95.40;;;;;;5404433;26;20572;-35
2024/04/10 03:43:12;;;;;;;1.00;0.70;;;20.70;95.50;;;;;;5395079;26;20791;-37
2024/04/10 03:45:43;;;;;;;1.23;0.88;;;20.60;95.50;;;;;;5405242;26;20357;-37
2024/04/10 03:48:16;;;;;;;1.33;0.77;;;20.40;95.40;;;;;;5402553;26;20244;-37
2024/04/10 03:50:46;;;;;;;1.20;0.80;;;21.10;95.70;;;;;;5405558;26;20291;-36
2024/04/10 03:53:14;;;;;;;0.90;0.70;;;20.50;95.50;;;;;;5404861;26;20232;-37
2024/04/10 03:55:42;;;;;;;1.23;0.80;;;20.30;95.40;;;;;;5410078;26;20603;-37
2024/04/10 03:58:22;;;;;;;1.42;0.80;;;20.30;95.60;;;;;;5403235;26;20239;-38
2024/04/10 04:00:53;;;;;;;1.13;0.70;;;20.70;95.80;;;;;;5409459;26;20637;-36
2024/04/10 04:03:22;;;;;;;0.90;0.60;;;20.60;95.70;;;;;;5400032;26;20621;-36
2024/04/10 04:05:54;;;;;;;2.67;1.00;;;20.30;95.40;;;;;;5395274;26;21141;-37
2024/04/10 04:08:27;;;;;;;1.20;0.60;;;20.40;95.70;;;;;;5403356;26;20228;-36
2024/04/10 04:10:58;;;;;;;1.40;0.70;;;21.10;96.00;;;;;;5408234;26;20419;-36
2024/04/10 04:13:37;;;;;;;2.17;0.80;;;20.30;95.80;;;;;;5400396;26;20751;-35
2024/04/10 04:16:09;;;;;;;1.33;0.90;;;20.50;95.80;;;;;;5406714;26;23056;-36
2024/04/10 04:18:41;;;;;;;1.10;0.90;;;20.50;95.90;;;;;;5402104;26;20232;-37
2024/04/10 04:21:12;;;;;;;1.05;0.93;;;20.30;95.90;;;;;;5394587;26;20275;-35
2024/04/10 04:23:42;;;;;;;1.10;0.85;;;20.50;96.00;;;;;;5398858;26;20259;-36
2024/04/10 04:26:14;;;;;;;1.00;0.60;;;20.30;95.80;;;;;;5400387;26;20282;-36
2024/04/10 04:28:48;;;;;;;1.10;0.70;;;20.40;96.00;;;;;;5401871;26;20236;-36
2024/04/10 04:31:17;;;;;;;0.90;0.68;;;20.40;96.10;;;;;;5406446;26;20243;-36
2024/04/10 04:33:49;;;;;;;0.90;0.70;;;20.30;96.00;;;;;;5399825;26;20340;-37
2024/04/10 04:36:24;;;;;;;1.20;0.77;;;20.30;96.10;;;;;;5396619;26;20302;-36
2024/04/10 04:38:54;;;;;;;1.25;0.70;;;20.30;96.00;;;;;;5404995;26;20256;-38
2024/04/10 04:41:25;;;;;;;1.65;0.98;;;20.20;96.00;;;;;;5406144;26;20293;-37
2024/04/10 04:43:53;;;;;;;1.00;0.70;;;20.20;96.10;;;;;;5393866;26;20742;-35
2024/04/10 04:46:26;;;;;;;1.30;0.82;;;20.30;96.40;;;;;;5400767;26;20263;-36
2024/04/10 04:48:52;;;;;;;1.10;0.80;;;20.20;96.20;;;;;;5405558;26;20293;-37
2024/04/10 04:51:20;;;;;;;1.10;0.70;;;20.20;96.30;;;;;;5397288;26;20617;-36
2024/04/10 04:53:46;;;;;;;1.75;0.90;;;20.30;96.30;;;;;;5398229;26;20233;-38
2024/04/10 04:56:16;;;;;;;1.17;0.70;;;20.20;96.30;;;;;;5402240;26;21069;-38
2024/04/10 04:58:43;;;;;;;2.80;0.80;;;20.20;96.40;;;;;;5401617;26;20338;-36
2024/04/10 05:01:22;;;;;;;1.17;1.02;;;20.10;96.30;;;;;;5402182;26;20283;-38
2024/04/10 05:06:45;;;;;;;0.88;0.60;;;20.10;96.30;;;;;;5401804;26;20296;-38
2024/04/10 05:09:18;;;;;;;2.63;1.20;;;20.30;96.30;;;;;;5397725;26;20936;-36
2024/04/10 05:11:46;;;;;;;1.27;0.80;;;20.40;96.70;;;;;;5389731;26;21864;-34
2024/04/10 05:14:16;;;;;;;0.90;0.70;;;20.20;96.60;;;;;;5397004;26;20229;-39
2024/04/10 05:16:50;;;;;;;1.10;0.80;;;20.40;96.70;;;;;;5400457;26;20331;-35
2024/04/10 05:19:18;;;;;;;1.00;0.80;;;20.10;96.40;;;;;;5404102;26;20586;-34
2024/04/10 05:21:51;;;;;;;1.00;0.80;;;20.10;96.80;;;;;;5397653;26;20271;-38
2024/04/10 05:24:23;;;;;;;1.00;0.90;;;20.00;96.80;;;;;;5406104;26;20244;-36
2024/04/10 05:26:55;;;;;;;1.52;0.90;;;20.20;96.80;;;;;;5395595;26;20270;-35
2024/04/10 05:29:24;;;;;;;1.42;0.80;;;20.20;96.90;;;;;;5400547;26;20790;-35
2024/04/10 05:31:58;;;;;;;2.22;1.10;;;20.00;96.60;;;;;;5403776;26;20778;-38
2024/04/10 05:34:26;;;;;;;1.00;0.70;;;20.10;96.90;;;;;;5402508;26;20272;-36
2024/04/10 05:36:57;;;;;;;1.20;0.70;;;20.70;97.10;;;;;;5398129;26;20304;-38
2024/04/10 05:39:25;;;;;;;1.00;0.63;;;20.50;97.20;;;;;;5404993;26;20240;-38
2024/04/10 05:42:06;;;;;;;1.10;0.70;;;20.50;97.10;;;;;;5402233;26;20313;-37
2024/04/10 05:44:37;;;;;;;1.25;0.95;;;20.00;96.90;;;;;;5403977;26;20591;-38
2024/04/10 05:47:09;;;;;;;1.00;0.70;;;19.90;96.90;;;;;;5400591;26;20227;-38
2024/04/10 05:49:37;;;;;;;1.70;0.90;;;20.20;97.10;;;;;;5406633;26;20775;-35
2024/04/10 05:52:08;;;;;;;1.30;0.70;;;20.00;97.00;;;;;;5402846;26;20263;-36
2024/04/10 05:54:34;;;;;;;1.20;0.70;;;20.10;96.80;;;;;;5404167;26;20666;-36
2024/04/10 05:57:10;;;;;;;1.00;0.70;;;19.80;97.10;;;;;;5404882;26;20229;-36
2024/04/10 05:59:41;;;;;;;1.17;0.80;;;20.10;97.10;;;;;;5406242;26;20340;-37
2024/04/10 06:02:26;;;;;;;1.17;0.70;;;19.90;97.10;;;;;;5401360;26;20292;-37
2024/04/10 06:04:52;;;;;;;1.33;0.70;;;20.10;97.20;;;;;;5402468;26;20237;-37
2024/04/10 06:07:28;;;;;;;1.00;0.70;;;20.20;97.60;;;;;;5395543;26;20271;-39
2024/04/10 06:09:59;;;;;;;1.10;0.70;;;20.00;96.90;;;;;;5397247;26;20454;-38
2024/04/10 06:12:28;;;;;;;0.90;0.60;;;19.90;97.10;;;;;;5396425;26;20236;-36
2024/04/10 06:14:58;;;;;;;1.20;0.65;;;19.90;97.20;;;;;;5398172;26;20267;-38
2024/04/10 06:17:31;;;;;;;0.90;0.80;;;20.10;97.40;;;;;;5399029;26;20251;-38
2024/04/10 06:20:05;;;;;;;0.98;0.80;;;19.80;97.40;;;;;;5389924;26;20266;-38
2024/04/10 06:22:33;;;;;;;1.00;0.80;;;19.90;97.20;;;;;;5395951;26;20326;-37
2024/04/10 06:24:59;;;;;;;2.20;1.40;;;20.10;97.40;;;;;;5390188;26;20280;-37
2024/04/10 06:27:29;;;;;;;1.23;0.70;;;20.30;97.70;;;;;;5394898;26;20808;-36
2024/04/10 06:29:56;;;;;;;1.35;0.75;;;19.80;97.40;;;;;;5394766;26;20708;-40
2024/04/10 06:32:37;;;;;;;1.20;0.98;;;19.90;98.10;;;;;;5379249;26;20236;-37
2024/04/10 06:35:14;;;;;;;1.30;0.80;;;20.20;97.80;;;;;;5400112;26;20863;-37
2024/04/10 06:37:44;;;;;;;0.90;0.70;;;19.80;97.90;;;;;;5396929;26;20266;-37
2024/04/10 06:40:15;;;;;;;1.02;0.70;;;20.00;98.30;;;;;;5393804;26;20711;-37
2024/04/10 06:42:43;;;;;;;1.25;1.08;;;20.60;98.20;;;;;;5396974;26;20308;-37
2024/04/10 06:45:14;;;;;;;1.27;0.90;;;20.40;98.10;;;;;;5399077;26;20237;-39
2024/04/10 06:47:46;;;;;;;1.20;0.80;;;20.30;98.00;;;;;;5401435;26;20229;-38
2024/04/10 06:50:12;;;;;;;1.10;0.80;;;20.40;97.90;;;;;;5412803;26;20225;-37
2024/04/10 06:52:41;;;;;;;1.00;0.80;;;20.30;97.90;;;;;;5399685;26;20336;-39
2024/04/10 06:55:14;;;;;;;1.00;0.70;;;20.60;97.90;;;;;;5403359;26;22736;-37
2024/04/10 06:57:43;;;;;;;2.85;0.98;;;20.40;97.60;;;;;;5409247;26;20236;-39
2024/04/10 07:00:12;;;;;;;1.10;0.70;;;20.50;97.70;;;;;;5399589;26;20245;-39
2024/04/10 07:02:46;;;;;;;1.10;0.90;;;20.60;97.50;;;;;;5405973;26;20237;-38
2024/04/10 07:05:18;;;;;;;1.20;0.70;;;20.60;97.60;;;;;;5399289;26;20332;-38
2024/04/10 07:07:50;;;;;;;1.20;1.00;;;21.30;98.00;;;;;;5394081;26;20610;-40
2024/04/10 07:10:18;;;;;;;1.23;0.87;;;20.60;97.50;;;;;;5397613;26;20532;-38
2024/04/10 07:12:51;;;;;;;1.40;0.80;;;20.80;97.60;;;;;;5401096;26;21071;-39
2024/04/10 07:15:19;;;;;;;1.73;1.00;;;20.60;97.50;;;;;;5401649;26;20482;-38
2024/04/10 07:17:47;;;;;;;1.00;0.70;;;20.50;97.30;;;;;;5400518;26;21009;-39
2024/04/10 07:20:17;;;;;;;1.10;0.67;;;20.80;97.50;;;;;;5403382;26;20908;-36
2024/04/10 07:22:44;;;;;;;2.45;0.85;;;20.70;97.30;;;;;;5401513;26;20530;-39
2024/04/10 07:25:13;;;;;;;2.00;0.73;;;20.70;97.00;;;;;;5398469;26;20279;-38
2024/04/10 07:27:40;;;;;;;1.80;0.90;;;20.80;96.90;;;;;;5394430;26;21063;-38
2024/04/10 07:30:12;;;;;;;1.13;0.80;;;21.10;97.00;;;;;;5377521;26;20243;-39
2024/04/10 07:32:45;;;;;;;1.63;1.05;;;20.90;96.80;;;;;;5388990;26;20470;-40
2024/04/10 07:35:21;;;;;;;2.78;0.75;;;20.90;96.50;;;;;;5399188;26;20665;-38
2024/04/10 07:37:50;;;;;;;2.40;1.37;;;20.90;96.70;;;;;;5394528;26;20239;-37
2024/04/10 07:40:22;;;;;;;1.60;0.80;;;20.70;96.60;;;;;;5398625;26;21011;-38
2024/04/10 07:42:51;;;;;;;1.13;0.67;;;20.50;96.30;;;;;;5398413;26;20525;-41
2024/04/10 07:45:20;;;;;;;1.37;0.80;;;20.90;96.50;;;;;;5398669;26;20525;-36
2024/04/10 07:47:48;;;;;;;1.57;0.70;;;20.80;96.40;;;;;;5400676;26;20458;-41
2024/04/10 07:50:22;;;;;;;1.93;1.00;;;20.90;96.40;;;;;;5399622;26;20457;-39
2024/04/10 07:52:48;;;;;;;1.40;1.13;;;20.70;94.90;;;;;;5362193;26;20509;-38
2024/04/10 07:55:16;;;;;;;1.60;1.10;;;20.80;95.30;;;;;;5397793;26;20912;-37
2024/04/10 07:57:44;;;;;;;2.20;1.00;;;21.00;95.00;;;;;;5400598;26;20263;-38
2024/04/10 08:00:17;;;;;;;2.40;0.93;;;20.90;94.80;;;;;;5405072;26;20516;-37
2024/04/10 08:02:47;;;;;;;1.50;1.20;;;20.90;94.90;;;;;;5400835;26;20474;-37
2024/04/10 08:05:17;;;;;;;9.37;1.40;;;20.90;95.20;;;;;;5402825;26;20463;-37
2024/04/10 08:07:46;;;;;;;3.70;1.00;;;21.00;95.00;;;;;;5400077;26;20457;-37
2024/04/10 08:10:16;;;;;;;2.33;1.27;;;20.50;95.20;;;;;;5396668;26;20472;-39
2024/04/10 08:12:42;;;;;;;2.67;1.03;;;20.80;95.50;;;;;;5403666;26;20278;-39
2024/04/10 08:15:14;;;;;;;1.77;0.90;;;20.90;95.30;;;;;;5398815;26;20574;-39
2024/04/10 08:17:46;;;;;;;2.53;1.20;;;21.00;94.90;;;;;;5407086;26;20237;-38
2024/04/10 08:20:22;;;;;;;2.50;1.00;;;21.00;94.40;;;;;;5406506;26;20473;-38
2024/04/10 08:22:56;;;;;;;2.17;1.20;;;21.00;94.50;;;;;;5401117;26;20592;-38
2024/04/10 08:25:28;;;;;;;2.70;1.33;;;21.10;94.30;;;;;;5406868;26;20543;-38
2024/04/10 08:27:54;;;;;;;2.05;1.00;;;21.10;94.60;;;;;;5396186;26;21183;-37
2024/04/10 08:30:25;;;;;;;1.73;0.90;;;21.30;94.70;;;;;;5401407;26;20560;-37
2024/04/10 08:32:51;;;;;;;1.90;1.00;;;21.20;94.10;;;;;;5397411;26;20232;-39
2024/04/10 08:35:21;;;;;;;3.10;1.00;;;21.20;94.10;;;;;;5394192;26;20663;-40
2024/04/10 08:37:53;;;;;;;2.57;1.00;;;21.10;94.00;;;;;;5377821;26;20372;-36
2024/04/10 08:40:25;;;;;;;2.43;1.30;;;21.20;94.20;;;;;;5396231;26;21160;-39
2024/04/10 08:42:52;;;;;;;2.80;0.83;;;21.10;94.10;;;;;;5395535;26;20542;-38
2024/04/10 08:45:25;;;;;;;2.60;0.80;;;21.10;94.30;;;;;;5394841;26;20864;-40
2024/04/10 08:47:55;;;;;;;2.30;1.23;;;21.30;94.20;;;;;;5394529;26;20587;-39
2024/04/10 08:50:24;;;;;;;4.73;1.20;;;21.20;94.10;;;;;;5397534;26;20474;-40
2024/04/10 08:53:00;;;;;;;5.30;1.13;;;21.30;94.00;;;;;;5401934;26;20470;-43
2024/04/10 08:55:34;;;;;;;2.70;1.00;;;21.20;93.90;;;;;;5392424;26;21291;-38
2024/04/10 08:58:02;;;;;;;1.13;0.90;;;22.00;94.30;;;;;;5388051;26;20587;-39
2024/04/10 09:00:34;;;;;;;1.50;1.10;;;21.20;94.10;;;;;;5391198;26;20457;-39
2024/04/10 09:03:06;;;;;;;2.80;0.80;;;21.30;94.20;;;;;;5395968;26;20532;-40
2024/04/10 09:05:39;;;;;;;1.70;0.87;;;21.30;94.10;;;;;;5383328;26;20537;-40
2024/04/10 09:08:08;;;;;;;1.67;1.00;;;21.30;94.00;;;;;;5394628;26;20860;-37
2024/04/10 09:10:40;;;;;;;1.20;0.80;;;21.30;94.10;;;;;;5392378;26;21100;-38
2024/04/10 09:13:16;;;;;;;1.63;1.20;;;21.90;94.20;;;;;;5402393;26;20542;-35
2024/04/10 09:15:46;;;;;;;2.47;1.10;;;21.70;94.00;;;;;;5400853;26;21024;-37
2024/04/10 09:18:16;;;;;;;2.20;1.17;;;22.00;94.30;;;;;;5404946;26;21074;-37
2024/04/10 09:20:49;;;;;;;2.53;1.30;;;21.30;93.70;;;;;;5403045;26;21294;-36
2024/04/10 09:23:23;;;;;;;1.47;0.90;;;21.50;93.80;;;;;;5397932;26;20469;-40
2024/04/10 09:25:54;;;;;;;1.57;0.80;;;21.50;93.80;;;;;;5399641;26;20529;-36
2024/04/10 09:28:26;;;;;;;2.53;1.20;;;21.50;93.40;;;;;;5403123;26;20466;-37
2024/04/10 09:31:04;;;;;;;3.63;1.30;;;21.60;93.60;;;;;;5389765;26;20473;-40
2024/04/10 09:33:39;;;;;;;1.57;0.77;;;21.50;93.60;;;;;;5387216;26;20586;-39
2024/04/10 09:36:12;;;;;;;1.53;1.43;;;21.60;93.30;;;;;;5389538;26;20468;-38
2024/04/10 09:38:54;;;;;;;1.50;1.07;;;21.50;93.50;;;;;;5399028;26;20474;-40
2024/04/10 09:41:31;;;;;;;1.83;1.23;;;21.40;93.20;;;;;;5397010;26;20479;-38
2024/04/10 09:44:02;;;;;;;1.40;1.20;;;21.40;93.20;;;;;;5396128;26;20551;-38
2024/04/10 09:46:40;;;;;;;1.60;1.00;;;21.50;93.30;;;;;;5400085;26;20470;-37
2024/04/10 09:49:10;;;;;;;1.60;1.20;;;21.60;93.30;;;;;;5390736;26;20921;-37
2024/04/10 09:51:45;;;;;;;1.10;0.80;;;21.40;93.40;;;;;;5397553;26;20572;-38
2024/04/10 09:54:22;;;;;;;1.43;0.83;;;21.50;93.40;;;;;;5389456;26;20473;-40
2024/04/10 09:57:06;;;;;;;1.30;0.80;;;21.70;93.30;;;;;;5395940;26;20912;-37
2024/04/10 09:59:33;;;;;;;1.30;1.13;;;21.30;93.20;;;;;;5397771;26;20488;-37
2024/04/10 10:02:13;;;;;;;2.20;0.90;;;21.70;93.30;;;;;;5401048;26;21159;-40
2024/04/10 10:04:46;;;;;;;1.10;0.80;;;21.70;93.10;;;;;;5402396;26;20524;-40
2024/04/10 10:07:32;;;;;;;1.10;0.90;;;21.70;93.00;;;;;;5399826;26;21012;-38
2024/04/10 10:10:08;;;;;;;2.70;1.23;;;21.70;92.90;;;;;;5401959;26;20477;-37
2024/04/10 10:12:44;;;;;;;1.50;1.00;;;21.70;92.80;;;;;;5401341;26;20498;-38
2024/04/10 10:15:28;;;;;;;2.70;1.20;;;21.60;92.70;;;;;;5405459;26;20456;-39
2024/04/10 10:17:56;;;;;;;2.07;1.00;;;21.90;92.80;;;;;;5397998;26;20505;-40
2024/04/10 10:20:25;;;;;;;1.33;1.00;;;21.80;92.70;;;;;;5405708;26;20516;-39
2024/04/10 10:23:06;;;;;;;3.63;1.10;;;21.70;92.60;;;;;;5393513;26;21142;-38
2024/04/10 10:25:36;;;;;;;2.30;1.20;;;21.70;92.20;;;;;;5400783;26;20622;-37
2024/04/10 10:28:12;;;;;;;1.47;1.20;;;21.90;92.30;;;;;;5392667;26;20457;-39
2024/04/10 10:30:40;;;;;;;2.10;1.40;;;21.90;92.20;;;;;;5403469;26;20472;-40
2024/04/10 10:33:11;;;;;;;2.50;1.57;;;21.90;92.10;;;;;;5397621;26;21583;-40
2024/04/10 10:35:46;;;;;;;3.43;1.63;;;22.40;92.60;;;;;;5400165;26;21055;-40
2024/04/10 10:38:24;;;;;;;1.83;1.20;;;21.80;92.20;;;;;;5398536;26;20476;-38
2024/04/10 10:40:58;;;;;;;1.50;1.20;;;22.00;92.00;;;;;;5402048;26;20464;-39
2024/04/10 10:43:27;;;;;;;3.30;1.20;;;21.90;92.00;;;;;;5396500;26;21120;-39
2024/04/10 10:45:54;;;;;;;3.87;1.70;;;22.00;92.10;;;;;;5401019;26;20586;-42
2024/04/10 10:48:39;;;;;;;1.47;1.17;;;21.90;91.90;;;;;;5385545;26;20511;-39
2024/04/10 10:51:11;;;;;;;1.87;1.30;;;21.80;91.80;;;;;;5371027;26;20468;-40
2024/04/10 10:53:43;;;;;;;1.70;1.50;;;21.90;92.00;;;;;;5400897;26;20477;-39
2024/04/10 10:56:23;;;;;;;1.73;1.27;;;21.80;92.10;;;;;;5402516;26;20470;-37
2024/04/10 10:59:08;;;;;;;3.13;1.40;;;22.00;92.20;;;;;;5400458;26;20809;-41
2024/04/10 11:01:49;;;;;;;3.37;1.03;;;22.40;92.40;;;;;;5399906;26;21151;-41
2024/04/10 11:04:21;;;;;;;1.80;1.30;;;22.00;92.20;;;;;;5401784;26;20849;-40
2024/04/10 11:06:48;;;;;;;1.70;1.10;;;22.30;92.20;;;;;;5399926;26;20470;-41
2024/04/10 11:09:22;;;;;;;2.10;1.23;;;22.20;92.30;;;;;;5394791;26;20530;-39
2024/04/10 11:12:01;;;;;;;3.43;1.73;;;22.20;92.20;;;;;;5401718;26;20611;-39
2024/04/10 11:14:38;;;;;;;1.20;1.10;;;22.70;92.50;;;;;;5406045;26;20472;-38
2024/04/10 11:17:15;;;;;;;1.40;1.10;;;22.30;92.10;;;;;;5400732;26;20473;-38
2024/04/10 11:19:51;;;;;;;1.67;1.23;;;22.60;92.40;;;;;;5403927;26;20476;-37
2024/04/10 11:22:53;;;;;;;1.93;1.30;;;22.10;91.70;;;;;;5394577;26;20569;-38
2024/04/10 11:25:31;;;;;;;1.63;1.00;;;22.20;91.50;;;;;;5397743;26;21266;-36
2024/04/10 11:28:03;;;;;;;2.10;1.50;;;22.30;91.90;;;;;;5404001;26;20985;-36
2024/04/10 11:30:37;;;;;;;2.10;0.93;;;22.40;92.10;;;;;;5402682;26;20470;-39
2024/04/10 11:33:07;;;;;;;1.20;1.10;;;22.30;92.20;;;;;;5397033;26;20482;-38
2024/04/10 11:36:08;;;;;;;1.80;1.17;;;22.40;92.10;;;;;;5398783;26;20686;-36
2024/04/10 11:38:37;;;;;;;2.43;1.70;;;22.60;92.20;;;;;;5394808;26;20464;-38
2024/04/10 11:41:43;;;;;;;3.77;1.70;;;22.70;92.20;;;;;;5401792;26;21140;-37
2024/04/10 11:44:15;;;;;;;1.90;1.20;;;22.40;91.90;;;;;;5394496;26;20599;-37
2024/04/10 11:46:52;;;;;;;1.80;1.17;;;22.40;91.60;;;;;;5393089;26;20665;-36
2024/04/10 11:49:28;;;;;;;1.80;1.10;;;22.60;91.70;;;;;;5394825;26;20502;-38
2024/04/10 11:51:59;;;;;;;1.87;1.20;;;22.60;91.60;;;;;;5392599;26;20477;-39
2024/04/10 11:54:40;;;;;;;1.40;1.23;;;23.10;92.10;;;;;;5397500;26;20466;-35
2024/04/10 11:57:07;;;;;;;1.93;1.10;;;22.50;91.80;;;;;;5404252;26;20500;-36
2024/04/10 11:59:39;;;;;;;1.50;1.17;;;22.60;92.10;;;;;;5399555;26;20474;-38
2024/04/10 12:02:05;;;;;;;2.90;1.27;;;23.10;92.30;;;;;;5397863;26;20478;-36
2024/04/10 12:04:33;;;;;;;1.80;1.50;;;21.90;91.60;;;;;;5401263;26;20505;-37
2024/04/10 12:07:07;;;;;;;1.60;1.10;;;22.60;91.90;;;;;;5403161;26;20232;-37
2024/04/10 12:09:40;;;;;;;2.27;1.30;;;22.60;91.50;;;;;;5402151;26;20835;-35
2024/04/10 12:12:06;;;;;;;1.40;1.20;;;22.70;91.70;;;;;;5401689;26;20522;-35
2024/04/10 12:14:37;;;;;;;1.70;1.30;;;22.70;91.90;;;;;;5405358;26;20465;-36
2024/04/10 12:17:07;;;;;;;2.20;1.27;;;22.60;91.60;;;;;;5404384;26;20515;-37
2024/04/10 12:19:41;;;;;;;1.57;1.10;;;22.70;91.80;;;;;;5401589;26;20474;-38
2024/04/10 12:22:09;;;;;;;1.20;1.10;;;22.50;91.40;;;;;;5379855;26;20512;-39
2024/04/10 12:24:39;;;;;;;2.17;1.20;;;22.70;91.70;;;;;;5404116;26;20584;-37
2024/04/10 12:27:05;;;;;;;1.90;1.40;;;22.70;91.60;;;;;;5402457;26;20561;-36
2024/04/10 12:29:36;;;;;;;4.10;1.23;;;22.60;91.60;;;;;;5403131;26;20536;-39
2024/04/10 12:32:05;;;;;;;2.10;1.20;;;22.80;91.20;;;;;;5397384;26;20249;-39
2024/04/10 12:34:33;;;;;;;1.73;1.40;;;22.90;91.30;;;;;;5404091;26;20542;-38
2024/04/10 12:39:50;;;;;;;3.63;1.30;;;22.90;91.10;;;;;;5395601;26;20657;-38
2024/04/10 12:42:27;;;;;;;2.00;1.37;;;22.80;91.10;;;;;;5395355;26;20482;-37
2024/04/10 12:44:57;;;;;;;1.70;1.20;;;22.90;91.00;;;;;;5399852;26;20468;-37
2024/04/10 12:47:31;;;;;;;7.83;2.90;;;23.10;91.10;;;;;;5392507;26;20862;-38
2024/04/10 12:50:07;;;;;;;7.03;3.23;;;22.70;67.60;;;;;;5386046;26;20848;-36
2024/04/10 12:52:36;;;;;;;10.30;3.73;;;;;;;;;;5400988;26;21028;-35
2024/04/10 12:55:07;;;;;;;6.77;3.37;;;20.80;59.10;;;;;;5394138;26;20473;-37
2024/04/10 12:57:35;;;;;;;4.78;2.70;;;20.70;62.70;;;;;;5407543;26;20870;-37
2024/04/10 13:00:06;;;;;;;7.00;4.28;;;20.00;67.00;;;;;;5408897;26;20275;-35
2024/04/10 13:02:39;;;;;;;9.27;3.75;;;20.10;64.50;;;;;;5401934;26;20239;-36
2024/04/10 13:05:08;;;;;;;5.63;2.03;;;19.80;65.90;;;;;;5404868;26;20258;-35
2024/04/10 13:07:38;;;;;;;4.50;2.10;;;19.80;64.30;;;;;;5398862;26;20349;-34
2024/04/10 13:10:11;;;;;;;3.88;2.40;;;20.10;68.10;;;;;;5393305;26;20244;-35
2024/04/10 13:12:36;;;;;;;9.80;2.53;;;20.10;63.10;;;;;;5397248;26;20319;-34
2024/04/10 13:15:05;;;;;;;11.57;2.47;;;19.90;62.30;;;;;;5398328;26;20231;-36
2024/04/10 13:17:38;;;;;;;3.25;1.70;;;20.30;59.80;;;;;;5395261;26;20235;-37
2024/04/10 13:20:08;;;;;;;4.15;2.00;;;20.30;60.90;;;;;;5397654;26;20236;-35